createdAt,value
2019-04-10T00:00:04.323Z,5.58
2019-04-10T00:02:39.492Z,5.50
2019-04-10T00:05:12.339Z,5.45
2019-04-10T00:07:45.798Z,5.74
2019-04-10T00:10:19.399Z,5.26
2019-04-10T00:12:52.209Z,5.74
2019-04-10T00:15:24.875Z,5.15
2019-04-10T00:17:57.757Z,5.69
2019-04-10T00:20:32.454Z,5.31
2019-04-10T00:23:04.973Z,5.44
2019-04-10T00:25:41.161Z,5.71
2019-04-10T00:28:14.907Z,5.34
2019-04-10T00:30:49.396Z,5.79
2019-04-10T00:33:22.896Z,5.23
2019-04-10T00:35:56.037Z,5.67
2019-04-10T00:38:29.565Z,5.24
2019-04-10T00:41:02.431Z,5.47
2019-04-10T00:43:35.043Z,5.68
2019-04-10T00:46:08.165Z,5.24
2019-04-10T00:48:41.772Z,5.74
2019-04-10T00:51:15.216Z,5.13
2019-04-10T00:53:49.663Z,5.55
2019-04-10T00:56:22.510Z,5.57
2019-04-10T00:58:55.448Z,5.31
2019-04-10T01:01:27.777Z,5.72
2019-04-10T01:04:02.693Z,5.15
2019-04-10T01:06:35.750Z,5.55
2019-04-10T01:09:10.304Z,5.55
2019-04-10T01:11:43.409Z,5.36
2019-04-10T01:14:16.053Z,5.77
2019-04-10T01:16:49.436Z,5.13
2019-04-10T01:19:23.934Z,5.51
2019-04-10T01:21:56.966Z,5.61
2019-04-10T01:24:30.003Z,5.28
2019-04-10T01:27:03.419Z,5.75
2019-04-10T01:29:36.237Z,5.20
2019-04-10T01:32:09.756Z,5.41
2019-04-10T01:34:43.180Z,5.71
2019-04-10T01:37:16.644Z,5.15
2019-04-10T01:39:50.656Z,5.75
2019-04-10T01:42:23.416Z,5.28
2019-04-10T01:44:56.004Z,5.48
2019-04-10T01:47:31.015Z,5.77
2019-04-10T01:50:04.407Z,5.30
2019-04-10T01:52:39.380Z,5.72
2019-04-10T01:55:20.156Z,5.18
2019-04-10T01:57:47.058Z,5.50
2019-04-10T02:00:23.953Z,5.69
2019-04-10T02:02:56.510Z,5.18
2019-04-10T02:05:30.281Z,5.71
2019-04-10T02:08:08.610Z,5.37
2019-04-10T02:10:38.467Z,5.40
2019-04-10T02:13:11.488Z,5.71
2019-04-10T02:15:44.119Z,5.12
2019-04-10T02:18:17.248Z,5.60
2019-04-10T02:20:50.094Z,5.52
2019-04-10T02:23:22.767Z,5.37
2019-04-10T02:25:55.333Z,5.75
2019-04-10T02:28:29.060Z,5.16
2019-04-10T02:31:02.873Z,5.51
2019-04-10T02:33:35.839Z,5.69
2019-04-10T02:36:08.537Z,5.19
2019-04-10T02:38:55.379Z,5.68
2019-04-10T02:41:15.052Z,5.36
2019-04-10T02:43:47.996Z,5.37
2019-04-10T02:46:22.009Z,5.78
2019-04-10T02:48:55.996Z,5.12
2019-04-10T02:51:30.484Z,5.64
2019-04-10T02:54:04.764Z,5.52
2019-04-10T02:56:37.117Z,5.26
2019-04-10T02:59:11.066Z,5.72
2019-04-10T03:01:44.035Z,5.19
2019-04-10T03:04:16.626Z,5.47
2019-04-10T03:06:51.564Z,5.67
2019-04-10T03:09:37.164Z,5.12
2019-04-10T03:11:59.526Z,5.60
2019-04-10T03:14:32.714Z,5.61
2019-04-10T03:17:06.021Z,5.19
2019-04-10T03:19:38.697Z,5.75
2019-04-10T03:22:12.370Z,5.20
2019-04-10T03:24:45.154Z,5.47
2019-04-10T03:27:19.092Z,5.72
2019-04-10T03:29:51.978Z,5.23
2019-04-10T03:32:40.656Z,5.77
2019-04-10T03:35:28.583Z,5.31
2019-04-10T03:38:01.554Z,5.28
2019-04-10T03:40:35.450Z,5.77
2019-04-10T03:43:08.173Z,5.16
2019-04-10T03:45:41.092Z,5.44
2019-04-10T03:48:15.842Z,5.72
2019-04-10T03:50:48.539Z,5.15
2019-04-10T03:53:22.299Z,5.47
2019-04-10T03:55:57.128Z,5.72
2019-04-10T03:58:29.960Z,5.18
2019-04-10T04:01:02.797Z,5.64
2019-04-10T04:03:35.180Z,5.44
2019-04-10T04:06:09.022Z,5.33
2019-04-10T04:08:41.629Z,5.79
2019-04-10T04:11:14.181Z,5.09
2019-04-10T04:13:47.932Z,5.54
2019-04-10T04:16:22.690Z,5.60
2019-04-10T04:18:59.760Z,5.20
2019-04-10T04:21:32.590Z,5.78
2019-04-10T04:24:05.152Z,5.18
2019-04-10T04:26:37.733Z,5.47
2019-04-10T04:29:10.289Z,5.75
2019-04-10T04:31:42.490Z,5.15
2019-04-10T04:34:15.244Z,5.61
2019-04-10T04:36:49.131Z,5.40
2019-04-10T04:39:26.237Z,5.24
2019-04-10T04:41:56.382Z,5.75
2019-04-10T04:44:29.271Z,5.12
2019-04-10T04:47:02.036Z,5.60
2019-04-10T04:49:35.731Z,5.58
2019-04-10T04:52:10.386Z,5.31
2019-04-10T04:54:43.500Z,5.71
2019-04-10T04:57:17.021Z,5.27
2019-04-10T04:59:50.566Z,5.36
2019-04-10T05:02:23.522Z,5.71
2019-04-10T05:05:00.305Z,5.15
2019-04-10T05:07:35.505Z,5.43
2019-04-10T05:10:09.586Z,5.74
2019-04-10T05:12:43.248Z,5.23
2019-04-10T05:15:17.165Z,5.68
2019-04-10T05:17:49.734Z,5.27
2019-04-10T05:20:23.200Z,5.50
2019-04-10T05:22:56.033Z,5.69
2019-04-10T05:25:29.379Z,5.20
2019-04-10T05:28:02.282Z,5.61
2019-04-10T05:30:35.708Z,5.38
2019-04-10T05:33:09.306Z,5.50
2019-04-10T05:35:41.934Z,5.68
2019-04-10T05:38:14.551Z,5.33
2019-04-10T05:40:47.024Z,5.78
2019-04-10T05:43:19.985Z,5.24
2019-04-10T05:45:53.006Z,5.75
2019-04-10T05:48:26.463Z,5.19
2019-04-10T05:51:02.988Z,5.61
2019-04-10T05:53:32.965Z,5.37
2019-04-10T05:56:05.664Z,5.54
2019-04-10T05:58:39.042Z,5.58
2019-04-10T06:01:11.595Z,5.52
2019-04-10T06:03:45.607Z,5.58
2019-04-10T06:06:17.886Z,5.45
2019-04-10T06:08:51.143Z,5.64
2019-04-10T06:11:24.601Z,5.40
2019-04-10T06:13:57.277Z,5.69
2019-04-10T06:16:30.308Z,5.34
2019-04-10T06:19:03.982Z,5.71
2019-04-10T06:21:37.617Z,5.36
2019-04-10T06:24:10.441Z,5.75
2019-04-10T06:26:43.477Z,5.43
2019-04-10T06:29:17.089Z,5.68
2019-04-10T06:31:50.237Z,5.45
2019-04-10T06:34:22.905Z,5.48
2019-04-10T06:36:55.606Z,5.45
2019-04-10T06:39:28.903Z,5.52
2019-04-10T06:42:02.517Z,5.44
2019-04-10T06:44:36.291Z,5.48
2019-04-10T06:47:09.847Z,5.61
2019-04-10T06:49:42.536Z,5.26
2019-04-10T06:52:15.048Z,5.62
2019-04-10T06:54:47.603Z,5.41
2019-04-10T06:57:20.808Z,5.43
2019-04-10T06:59:54.439Z,5.50
2019-04-10T07:02:30.665Z,5.27
2019-04-10T07:05:05.723Z,5.54
2019-04-10T07:07:49.507Z,5.38
2019-04-10T07:10:22.389Z,5.33
2019-04-10T07:12:45.781Z,5.30
2019-04-10T07:15:22.415Z,5.41
2019-04-10T07:17:53.414Z,5.43
2019-04-10T07:20:26.291Z,5.30
2019-04-10T07:22:59.579Z,5.41
2019-04-10T07:25:32.364Z,5.44
2019-04-10T07:28:08.781Z,5.38
2019-04-10T07:30:40.086Z,5.40
2019-04-10T07:33:14.895Z,5.36
2019-04-10T07:35:46.757Z,5.40
2019-04-10T07:38:21.354Z,5.45
2019-04-10T07:40:54.712Z,5.50
2019-04-10T07:44:12.069Z,5.57
2019-04-10T07:46:44.974Z,5.64
2019-04-10T07:49:19.336Z,5.74
2019-04-10T07:51:51.992Z,5.79
2019-04-10T07:54:26.659Z,5.84
2019-04-10T07:56:59.906Z,5.90
2019-04-10T07:59:33.403Z,5.96
2019-04-10T08:02:08.444Z,6.02
2019-04-10T08:05:20.971Z,6.07
2019-04-10T08:07:56.069Z,6.21
2019-04-10T08:10:28.866Z,6.30
2019-04-10T08:13:02.420Z,6.37
2019-04-10T08:15:37.610Z,6.44
2019-04-10T08:18:10.681Z,6.51
2019-04-10T08:20:43.167Z,6.56
2019-04-10T08:23:15.727Z,6.63
2019-04-10T08:25:47.824Z,6.68
2019-04-10T08:28:20.383Z,6.75
2019-04-10T08:30:52.567Z,6.82
2019-04-10T08:33:25.988Z,6.87
2019-04-10T08:35:58.993Z,6.96
2019-04-10T08:38:32.373Z,7.05
2019-04-10T08:41:05.265Z,7.14
2019-04-10T08:43:37.802Z,7.15
2019-04-10T08:46:10.882Z,7.23
2019-04-10T08:48:43.649Z,7.36
2019-04-10T08:51:17.057Z,7.46
2019-04-10T08:53:50.835Z,7.54
2019-04-10T08:56:24.750Z,7.64
2019-04-10T08:58:57.293Z,7.77
2019-04-10T09:01:31.500Z,7.84
2019-04-10T09:04:03.988Z,7.91
2019-04-10T09:06:37.681Z,8.06
2019-04-10T09:09:10.724Z,8.19
2019-04-10T09:11:43.286Z,8.32
2019-04-10T09:14:16.993Z,8.41
2019-04-10T09:16:49.686Z,8.51
2019-04-10T09:19:22.264Z,8.58
2019-04-10T09:21:55.402Z,8.69
2019-04-10T09:24:28.290Z,8.79
2019-04-10T09:27:01.244Z,8.95
2019-04-10T09:29:34.022Z,9.07
2019-04-10T09:32:06.667Z,9.13
2019-04-10T09:34:38.842Z,9.21
2019-04-10T09:37:13.476Z,9.24
2019-04-10T09:39:47.591Z,9.33
2019-04-10T09:42:21.531Z,9.42
2019-04-10T09:44:54.836Z,9.44
2019-04-10T09:47:27.407Z,9.35
2019-04-10T09:50:00.035Z,9.38
2019-04-10T09:52:32.455Z,9.42
2019-04-10T09:55:07.348Z,9.46
2019-04-10T09:57:40.896Z,9.56
2019-04-10T10:00:15.055Z,9.59
2019-04-10T10:02:50.723Z,9.70
2019-04-10T10:05:23.052Z,9.83
2019-04-10T10:07:56.206Z,9.98
2019-04-10T10:10:29.263Z,10.12
2019-04-10T10:13:01.729Z,10.20
2019-04-10T10:15:35.522Z,10.27
2019-04-10T10:18:08.853Z,10.35
2019-04-10T10:20:41.500Z,10.40
2019-04-10T10:23:14.079Z,10.43
2019-04-10T10:25:47.717Z,10.47
2019-04-10T10:28:20.835Z,10.57
2019-04-10T10:30:53.670Z,10.67
2019-04-10T10:33:26.325Z,10.73
2019-04-10T10:35:59.829Z,10.81
2019-04-10T10:38:32.500Z,10.86
2019-04-10T10:41:05.288Z,10.94
2019-04-10T10:43:37.793Z,10.99
2019-04-10T10:46:11.334Z,10.91
2019-04-10T10:48:44.185Z,10.86
2019-04-10T10:51:18.336Z,10.90
2019-04-10T10:53:52.508Z,10.98
2019-04-10T10:56:25.247Z,11.01
2019-04-10T10:58:58.938Z,11.05
2019-04-10T11:01:31.933Z,11.05
2019-04-10T11:04:04.928Z,11.12
2019-04-10T11:06:49.380Z,11.23
2019-04-10T11:09:14.280Z,11.30
2019-04-10T11:11:47.571Z,11.47
2019-04-10T11:14:21.505Z,11.61
2019-04-10T11:16:56.144Z,11.77
2019-04-10T11:19:29.015Z,11.92
2019-04-10T11:22:01.461Z,12.09
2019-04-10T11:24:35.334Z,12.20
2019-04-10T11:27:10.330Z,12.26
2019-04-10T11:29:45.394Z,12.45
2019-04-10T11:32:19.906Z,12.62
2019-04-10T11:34:52.897Z,12.90
2019-04-10T11:37:35.011Z,13.21
2019-04-10T11:40:01.210Z,13.56
2019-04-10T11:42:37.078Z,13.89
2019-04-10T11:45:14.418Z,14.02
2019-04-10T11:47:47.540Z,14.01
2019-04-10T11:50:21.936Z,13.97
2019-04-10T11:52:56.751Z,13.80
2019-04-10T11:55:29.756Z,13.79
2019-04-10T11:58:03.029Z,13.80
2019-04-10T12:00:51.012Z,13.94
2019-04-10T12:03:18.392Z,13.98
2019-04-10T12:05:52.546Z,14.11
2019-04-10T12:08:48.565Z,14.39
2019-04-10T12:13:32.409Z,14.77
2019-04-10T12:16:05.416Z,14.92
2019-04-10T12:18:38.408Z,14.95
2019-04-10T12:21:11.174Z,15.06
2019-04-10T12:23:43.571Z,15.39
2019-04-10T12:26:16.020Z,15.71
2019-04-10T12:28:50.017Z,16.16
2019-04-10T12:31:23.819Z,16.54
2019-04-10T12:33:56.978Z,16.85
2019-04-10T12:36:29.358Z,17.06
2019-04-10T12:39:01.977Z,16.99
2019-04-10T12:41:36.274Z,16.80
2019-04-10T12:44:09.592Z,16.92
2019-04-10T12:46:43.505Z,17.18
2019-04-10T12:49:17.126Z,17.49
2019-04-10T12:51:50.087Z,17.80
2019-04-10T12:54:23.766Z,18.07
2019-04-10T12:56:56.711Z,18.24
2019-04-10T12:59:29.456Z,18.37
2019-04-10T13:02:02.843Z,18.50
2019-04-10T13:04:36.866Z,18.74
2019-04-10T13:07:09.950Z,18.90
2019-04-10T13:09:42.223Z,19.12
2019-04-10T13:12:15.311Z,19.16
2019-04-10T13:14:48.585Z,19.19
2019-04-10T13:17:20.804Z,19.15
2019-04-10T13:19:53.452Z,19.10
2019-04-10T13:22:26.495Z,19.16
2019-04-10T13:24:59.625Z,19.22
2019-04-10T13:27:31.901Z,19.35
2019-04-10T13:30:07.020Z,19.49
2019-04-10T13:32:40.294Z,19.61
2019-04-10T13:35:13.686Z,19.68
2019-04-10T13:37:47.840Z,19.75
2019-04-10T13:40:21.545Z,19.62
2019-04-10T13:42:54.208Z,19.49
2019-04-10T13:45:27.105Z,19.23
2019-04-10T13:47:59.794Z,18.95
2019-04-10T13:50:32.758Z,18.63
2019-04-10T13:53:05.849Z,18.63
2019-04-10T13:55:38.428Z,18.73
2019-04-10T13:58:10.902Z,18.98
2019-04-10T14:00:45.108Z,19.03
2019-04-10T14:03:19.302Z,18.67
2019-04-10T14:05:52.909Z,18.33
2019-04-10T14:08:40.476Z,18.12
2019-04-10T14:11:00.593Z,18.14
2019-04-10T14:13:33.034Z,18.31
2019-04-10T14:16:06.822Z,18.42
2019-04-10T14:18:39.301Z,18.56
2019-04-10T14:21:15.618Z,18.78
2019-04-10T14:23:47.235Z,18.97
2019-04-10T14:26:39.166Z,18.99
2019-04-10T14:29:01.716Z,19.12
2019-04-10T14:31:36.279Z,19.19
2019-04-10T14:34:08.888Z,19.40
2019-04-10T14:36:42.198Z,19.53
2019-04-10T14:39:19.582Z,19.56
2019-04-10T14:41:50.513Z,19.05
2019-04-10T14:44:23.314Z,18.35
2019-04-10T14:46:56.078Z,17.79
2019-04-10T14:49:29.297Z,17.46
2019-04-10T14:52:03.076Z,17.42
2019-04-10T14:54:35.856Z,17.02
2019-04-10T14:57:08.532Z,16.78
2019-04-10T14:59:42.256Z,16.71
2019-04-10T15:02:14.916Z,16.86
2019-04-10T15:04:47.388Z,16.93
2019-04-10T15:07:21.864Z,16.71
2019-04-10T15:09:55.921Z,16.24
2019-04-10T15:12:28.498Z,16.02
2019-04-10T15:15:01.720Z,16.11
2019-04-10T15:17:35.199Z,16.29
2019-04-10T15:20:07.769Z,16.51
2019-04-10T15:22:40.345Z,16.73
2019-04-10T15:25:13.040Z,16.82
2019-04-10T15:27:46.001Z,17.02
2019-04-10T15:30:18.793Z,17.18
2019-04-10T15:32:50.973Z,17.25
2019-04-10T15:35:24.366Z,17.18
2019-04-10T15:37:57.772Z,17.14
2019-04-10T15:40:30.553Z,16.99
2019-04-10T15:43:03.118Z,16.50
2019-04-10T15:45:35.810Z,15.92
2019-04-10T15:48:08.387Z,15.53
2019-04-10T15:50:41.446Z,15.50
2019-04-10T15:53:14.335Z,15.49
2019-04-10T15:55:47.601Z,15.64
2019-04-10T15:58:21.542Z,15.67
2019-04-10T16:00:54.425Z,15.78
2019-04-10T16:03:28.133Z,15.88
2019-04-10T16:06:00.856Z,15.61
2019-04-10T16:08:34.431Z,15.12
2019-04-10T16:11:15.587Z,14.56
2019-04-10T16:13:49.703Z,13.93
2019-04-10T16:16:27.368Z,13.41
2019-04-10T16:19:04.371Z,12.96
2019-04-10T16:21:37.980Z,12.74
2019-04-10T16:24:12.335Z,12.78
2019-04-10T16:26:44.872Z,12.80
2019-04-10T16:29:18.124Z,12.68
2019-04-10T16:31:53.086Z,12.68
2019-04-10T16:34:25.470Z,12.72
2019-04-10T16:36:57.948Z,12.89
2019-04-10T16:39:30.516Z,12.96
2019-04-10T16:42:03.128Z,13.09
2019-04-10T16:44:35.880Z,13.25
2019-04-10T16:47:08.360Z,13.38
2019-04-10T16:49:41.234Z,13.48
2019-04-10T16:52:14.585Z,13.48
2019-04-10T16:54:47.310Z,13.46
2019-04-10T16:57:20.683Z,13.43
2019-04-10T16:59:53.486Z,13.30
2019-04-10T17:02:26.347Z,13.11
2019-04-10T17:05:00.499Z,12.83
2019-04-10T17:07:34.873Z,12.51
2019-04-10T17:10:16.516Z,12.07
2019-04-10T17:12:44.730Z,11.51
2019-04-10T17:15:17.975Z,10.99
2019-04-10T17:17:50.683Z,10.49
2019-04-10T17:20:24.850Z,10.00
2019-04-10T17:22:58.386Z,9.58
2019-04-10T17:25:31.903Z,9.13
2019-04-10T17:28:05.214Z,8.71
2019-04-10T17:30:39.977Z,8.30
2019-04-10T17:33:13.864Z,7.94
2019-04-10T17:35:48.238Z,7.64
2019-04-10T17:38:22.593Z,7.33
2019-04-10T17:40:58.902Z,7.01
2019-04-10T17:43:35.113Z,6.78
2019-04-10T17:46:09.417Z,6.49
2019-04-10T17:48:44.566Z,6.27
2019-04-10T17:51:17.840Z,6.02
2019-04-10T17:53:50.460Z,5.78
2019-04-10T17:56:24.582Z,5.58
2019-04-10T17:58:56.696Z,5.43
2019-04-10T18:01:29.330Z,5.26
2019-04-10T18:04:05.488Z,5.45
2019-04-10T18:06:39.481Z,5.31
2019-04-10T18:09:12.068Z,5.52
2019-04-10T18:11:45.684Z,5.36
2019-04-10T18:14:19.581Z,5.45
2019-04-10T18:16:52.188Z,5.47
2019-04-10T18:19:27.403Z,5.22
2019-04-10T18:22:00.518Z,5.54
2019-04-10T18:24:33.370Z,5.24
2019-04-10T18:27:05.810Z,5.64
2019-04-10T18:29:39.300Z,5.34
2019-04-10T18:32:11.803Z,5.65
2019-04-10T18:34:44.727Z,5.50
2019-04-10T18:37:20.632Z,5.27
2019-04-10T18:39:51.187Z,5.62
2019-04-10T18:42:24.366Z,5.27
2019-04-10T18:44:57.506Z,5.67
2019-04-10T18:47:32.365Z,5.38
2019-04-10T18:50:06.412Z,5.61
2019-04-10T18:52:39.282Z,5.52
2019-04-10T18:55:14.323Z,5.33
2019-04-10T18:57:47.304Z,5.64
2019-04-10T19:00:38.593Z,5.20
2019-04-10T19:03:18.887Z,5.61
2019-04-10T19:05:54.089Z,5.22
2019-04-10T19:08:28.014Z,5.64
2019-04-10T19:11:10.560Z,5.20
2019-04-10T19:13:34.810Z,5.71
2019-04-10T19:16:07.606Z,5.28
2019-04-10T19:18:40.193Z,5.72
2019-04-10T19:21:13.272Z,5.40
2019-04-10T19:23:45.951Z,5.69
2019-04-10T19:26:21.051Z,5.47
2019-04-10T19:28:54.612Z,5.51
2019-04-10T19:31:29.787Z,5.54
2019-04-10T19:34:03.282Z,5.45
2019-04-10T19:36:36.216Z,5.55
2019-04-10T19:39:10.218Z,5.37
2019-04-10T19:41:42.328Z,5.61
2019-04-10T19:44:15.053Z,5.20
2019-04-10T19:46:48.358Z,5.60
2019-04-10T19:49:21.795Z,5.24
2019-04-10T19:51:54.636Z,5.54
2019-04-10T19:54:26.837Z,5.34
2019-04-10T19:56:59.384Z,5.61
2019-04-10T19:59:32.065Z,5.22
2019-04-10T20:02:04.586Z,5.61
2019-04-10T20:04:48.504Z,5.23
2019-04-10T20:07:25.052Z,5.54
2019-04-10T20:09:58.946Z,5.44
2019-04-10T20:12:32.837Z,5.50
2019-04-10T20:15:14.018Z,5.50
2019-04-10T20:17:48.339Z,5.50
2019-04-10T20:20:23.569Z,5.60
2019-04-10T20:22:58.301Z,5.45
2019-04-10T20:25:32.414Z,5.62
2019-04-10T20:28:05.325Z,5.47
2019-04-10T20:30:40.450Z,5.57
2019-04-10T20:33:14.485Z,5.52
2019-04-10T20:35:47.274Z,5.52
2019-04-10T20:38:20.859Z,5.50
2019-04-10T20:40:54.036Z,5.55
2019-04-10T20:43:32.672Z,5.51
2019-04-10T20:46:09.845Z,5.61
2019-04-10T20:48:43.040Z,5.44
2019-04-10T20:51:16.582Z,5.64
2019-04-10T20:53:50.544Z,5.33
2019-04-10T20:56:24.258Z,5.74
2019-04-10T20:58:57.233Z,5.36
2019-04-10T21:01:30.919Z,5.72
2019-04-10T21:04:03.731Z,5.30
2019-04-10T21:06:39.133Z,5.72
2019-04-10T21:09:11.636Z,5.28
2019-04-10T21:11:58.852Z,5.65
2019-04-10T21:14:19.194Z,5.18
2019-04-10T21:16:52.132Z,5.68
2019-04-10T21:19:24.914Z,5.18
2019-04-10T21:21:57.699Z,5.60
2019-04-10T21:24:30.169Z,5.23
2019-04-10T21:27:03.574Z,5.60
2019-04-10T21:29:54.821Z,5.41
2019-04-10T21:32:28.194Z,5.47
2019-04-10T21:35:02.172Z,5.64
2019-04-10T21:37:34.762Z,5.48
2019-04-10T21:40:08.177Z,5.62
2019-04-10T21:42:41.279Z,5.51
2019-04-10T21:45:14.139Z,5.58
2019-04-10T21:47:46.716Z,5.44
2019-04-10T21:50:20.022Z,5.67
2019-04-10T21:52:52.787Z,5.37
2019-04-10T21:55:25.266Z,5.72
2019-04-10T21:57:57.945Z,5.27
2019-04-10T22:00:49.210Z,5.75
2019-04-10T22:03:22.551Z,5.15
2019-04-10T22:06:03.610Z,5.55
2019-04-10T22:08:41.412Z,5.43
2019-04-10T22:11:14.821Z,5.57
2019-04-10T22:13:48.606Z,5.52
2019-04-10T22:16:23.924Z,5.51
2019-04-10T22:18:56.849Z,5.64
2019-04-10T22:21:29.738Z,5.45
2019-04-10T22:24:02.315Z,5.72
2019-04-10T22:26:34.797Z,5.41
2019-04-10T22:29:07.689Z,5.71
2019-04-10T22:31:41.564Z,5.34
2019-04-10T22:34:14.364Z,5.72
2019-04-10T22:36:47.189Z,5.26
2019-04-10T22:39:20.912Z,5.68
2019-04-10T22:41:53.321Z,5.16
2019-04-10T22:44:34.721Z,5.62
2019-04-10T22:47:00.969Z,5.33
2019-04-10T22:49:34.885Z,5.55
2019-04-10T22:52:08.847Z,5.54
2019-04-10T22:54:42.295Z,5.43
2019-04-10T22:57:15.027Z,5.72
2019-04-10T22:59:48.783Z,5.36
2019-04-10T23:02:21.617Z,5.69
2019-04-10T23:04:54.295Z,5.22
2019-04-10T23:07:27.945Z,5.65
2019-04-10T23:10:00.982Z,5.23
2019-04-10T23:12:34.586Z,5.52
2019-04-10T23:15:13.375Z,5.55
2019-04-10T23:17:45.827Z,5.40
2019-04-10T23:20:18.715Z,5.67
2019-04-10T23:22:52.607Z,5.27
2019-04-10T23:25:26.552Z,5.71
2019-04-10T23:28:00.978Z,5.15
2019-04-10T23:30:35.126Z,5.67
2019-04-10T23:33:08.118Z,5.23
2019-04-10T23:35:41.308Z,5.51
2019-04-10T23:38:15.205Z,5.58
2019-04-10T23:40:49.311Z,5.40
2019-04-10T23:43:22.743Z,5.71
2019-04-10T23:45:56.410Z,5.24
2019-04-10T23:48:28.890Z,5.67
2019-04-10T23:51:01.458Z,5.19
2019-04-10T23:53:33.938Z,5.52
2019-04-10T23:56:06.513Z,5.57
2019-04-10T23:58:38.640Z,5.37
